Time;durP1;ratioP1;P1;durP2;ratioP2;P2;SDS_P1;SDS_P2;PMS_P1;PMS_P2;Temp;Humidity;BMP_temperature;BMP_pressure;BME280_temperature;BME280_humidity;BME280_pressure;Samples;Min_cycle;Max_cycle;Signal;HPM_P1;HPM_P2
2021/03/14 00:01:21;;;;;;;60.53;22.97;;;;;;;4.67;77.89;98674.13;5089435;56;1139326;-76
2021/03/14 00:06:26;;;;;;;32.70;14.20;;;;;;;4.66;77.62;98665.44;5088246;56;1136542;-76
2021/03/14 00:11:32;;;;;;;12.83;3.83;;;;;;;4.65;77.55;98655.09;5089281;56;1136485;-75
2021/03/14 00:16:37;;;;;;;28.93;7.93;;;;;;;4.64;76.89;98659.98;5089535;56;1134323;-75
2021/03/14 00:21:43;;;;;;;18.70;4.40;;;;;;;4.63;77.52;98649.98;5089445;57;1134235;-75
2021/03/14 00:26:49;;;;;;;6.67;2.70;;;;;;;4.62;77.13;98647.48;5086793;56;1134266;-77
2021/03/14 00:31:55;;;;;;;9.03;2.23;;;;;;;4.56;77.02;98662.77;5067539;57;1132102;-76
2021/03/14 00:37:01;;;;;;;5.55;2.55;;;;;;;4.56;76.97;98647.06;5068035;57;1132533;-77
2021/03/14 00:42:07;;;;;;;7.93;2.17;;;;;;;4.51;77.02;98657.07;5068295;57;1132320;-75
2021/03/14 00:47:14;;;;;;;4.70;2.00;;;;;;;4.51;76.70;98653.14;5067774;57;1132316;-77
2021/03/14 00:52:20;;;;;;;7.83;2.62;;;;;;;4.50;76.81;98659.33;5067876;57;1132324;-75
2021/03/14 00:57:26;;;;;;;2.65;1.20;;;;;;;4.51;76.80;98654.93;5067812;57;1132370;-77
2021/03/14 01:02:32;;;;;;;6.20;1.60;;;;;;;4.49;76.43;98657.67;5067670;57;1132644;-74
2021/03/14 01:07:38;;;;;;;7.43;1.90;;;;;;;4.45;76.37;98658.87;5067752;57;1132709;-76
2021/03/14 01:12:44;;;;;;;4.83;2.40;;;;;;;4.46;76.51;98663.15;5067881;57;1132922;-76
2021/03/14 01:17:53;;;;;;;4.30;1.22;;;;;;;4.43;76.31;98654.23;5070010;57;1133128;-77
2021/03/14 01:22:58;;;;;;;6.92;1.30;;;;;;;4.45;75.88;98647.56;4988844;57;1132689;-74
2021/03/14 01:28:04;;;;;;;4.80;1.27;;;;;;;4.45;75.57;98642.33;4982427;57;1132881;-78
2021/03/14 01:33:10;;;;;;;3.15;1.15;;;;;;;4.48;75.37;98640.30;5002688;57;1132258;-74
2021/03/14 01:38:16;;;;;;;3.00;1.37;;;;;;;4.49;75.12;98651.13;5048289;57;1132591;-76
2021/03/14 01:43:21;;;;;;;3.60;1.37;;;;;;;4.51;74.58;98648.38;5089804;56;1132244;-75
2021/03/14 01:48:28;;;;;;;5.20;1.53;;;;;;;4.52;74.07;98636.95;5096054;56;1132420;-77
2021/03/14 01:53:34;;;;;;;8.57;1.70;;;;;;;4.55;74.36;98626.23;5145007;56;1132228;-74
2021/03/14 01:58:42;;;;;;;2.53;1.33;;;;;;;4.56;74.19;98622.19;5144985;56;1132247;-74
2021/03/14 02:03:47;;;;;;;3.63;1.10;;;;;;;4.52;73.89;98643.50;5144812;56;1132057;-75
2021/03/14 02:08:53;;;;;;;2.90;1.50;;;;;;;4.56;73.55;98623.97;5145166;56;1132769;-75
2021/03/14 02:14:01;;;;;;;4.80;1.25;;;;;;;4.54;73.93;98614.11;5144887;56;1132641;-76
2021/03/14 02:19:14;;;;;;;4.53;1.67;;;;;;;4.51;73.89;98613.05;5144628;56;1132583;-75
2021/03/14 02:24:22;;;;;;;;;;;;;;;4.49;73.98;98612.34;5148626;56;1132695;-77
2021/03/14 02:29:28;;;;;;;5.73;1.40;;;;;;;4.46;73.77;98621.27;5126092;56;970233;-74
2021/03/14 02:34:37;;;;;;;1.87;0.98;;;;;;;4.42;73.91;98618.58;5144091;56;1130758;-74
2021/03/14 02:39:44;;;;;;;9.67;1.80;;;;;;;4.40;73.99;98626.20;5143817;56;1132578;-75
2021/03/14 02:44:55;;;;;;;6.77;1.57;;;;;;;4.39;74.17;98631.91;5144194;56;1132170;-76
2021/03/14 02:50:03;;;;;;;4.53;1.37;;;;;;;4.37;74.24;98636.91;5144699;56;1132266;-76
2021/03/14 02:55:11;;;;;;;4.33;1.00;;;;;;;4.40;74.19;98646.66;5144920;56;1132693;-74
2021/03/14 03:00:21;;;;;;;3.23;1.30;;;;;;;4.44;73.97;98644.59;5144673;56;1132704;-76
2021/03/14 03:05:28;;;;;;;3.90;1.20;;;;;;;4.48;74.21;98652.08;5144915;56;1132567;-77
2021/03/14 03:10:41;;;;;;;4.23;1.30;;;;;;;4.47;73.96;98646.49;5144712;56;1132611;-76
2021/03/14 03:15:48;;;;;;;3.77;1.37;;;;;;;4.50;73.84;98643.63;5144864;56;1132912;-74
2021/03/14 03:20:57;;;;;;;6.83;2.45;;;;;;;4.50;73.77;98646.25;5134354;56;1132384;-76
2021/03/14 03:26:05;;;;;;;1.47;1.00;;;;;;;4.51;73.35;98643.15;5162861;56;1132561;-76
2021/03/14 03:31:11;;;;;;;2.30;0.70;;;;;;;4.51;73.35;98647.08;5166308;56;1132258;-77
2021/03/14 03:36:16;;;;;;;5.10;1.13;;;;;;;4.48;73.24;98645.53;5155724;56;1132659;-74
2021/03/14 03:41:24;;;;;;;4.50;1.07;;;;;;;4.49;73.48;98643.75;5155987;56;1132081;-75
2021/03/14 03:46:30;;;;;;;7.57;1.53;;;;;;;4.43;73.11;98626.75;5155832;56;1132313;-74
2021/03/14 03:51:37;;;;;;;1.53;0.97;;;;;;;4.40;73.03;98640.59;5155761;56;1132171;-75
2021/03/14 03:56:44;;;;;;;4.50;1.47;;;;;;;4.30;73.17;98625.27;5155856;56;1133042;-75
2021/03/14 04:01:50;;;;;;;3.70;1.03;;;;;;;4.24;73.16;98613.06;5155906;56;1132102;-74
2021/03/14 04:06:57;;;;;;;4.43;1.53;;;;;;;4.16;73.40;98610.70;5156081;56;1132425;-74
2021/03/14 04:12:05;;;;;;;3.87;0.90;;;;;;;4.14;73.41;98613.92;5156037;56;1132118;-77
2021/03/14 04:17:11;;;;;;;7.80;1.20;;;;;;;4.10;73.51;98611.23;5156207;56;1132731;-75
2021/03/14 04:22:17;;;;;;;7.63;1.90;;;;;;;4.11;73.39;98612.89;5155822;56;1132304;-76
2021/03/14 04:27:23;;;;;;;2.67;1.00;;;;;;;4.09;73.68;98628.70;5156107;56;1132541;-75
2021/03/14 04:32:29;;;;;;;3.33;1.53;;;;;;;4.11;73.55;98612.41;5155747;56;1132923;-77
2021/03/14 04:37:38;;;;;;;5.43;1.13;;;;;;;4.07;73.48;98614.91;5155809;56;1132838;-76
2021/03/14 04:42:47;;;;;;;4.83;1.20;;;;;;;4.10;73.41;98619.91;5156057;56;1132817;-75
2021/03/14 04:47:53;;;;;;;2.55;1.32;;;;;;;4.08;73.56;98615.75;5155850;56;1132801;-75
2021/03/14 04:53:03;;;;;;;1.60;0.93;;;;;;;4.09;73.41;98622.64;5155941;56;1142190;-77
2021/03/14 04:58:12;;;;;;;1.55;0.50;;;;;;;4.09;73.34;98606.95;5155979;56;1132717;-76
2021/03/14 05:03:21;;;;;;;3.02;0.65;;;;;;;4.09;73.07;98599.93;5155701;56;1132847;-75
2021/03/14 05:08:28;;;;;;;3.40;1.53;;;;;;;4.11;72.78;98603.25;5155811;56;1132637;-76
2021/03/14 05:13:36;;;;;;;2.60;1.03;;;;;;;4.18;72.51;98597.86;5155769;56;1132881;-75
2021/03/14 05:18:44;;;;;;;2.40;1.17;;;;;;;4.22;72.62;98612.36;5155716;56;1132633;-75
2021/03/14 05:23:50;;;;;;;2.50;2.20;;;;;;;4.31;72.02;98602.91;5156481;56;1132869;-74
2021/03/14 05:28:58;;;;;;;2.33;1.10;;;;;;;4.42;71.54;98609.42;5153932;56;1132840;-77
2021/03/14 05:34:11;;;;;;;3.40;0.70;;;;;;;4.52;71.51;98612.92;5114031;56;1132312;-79
2021/03/14 05:39:17;;;;;;;5.92;2.83;;;;;;;4.56;72.01;98624.80;5160350;56;1132647;-77
2021/03/14 05:44:24;;;;;;;1.50;0.93;;;;;;;4.56;72.90;98621.36;5166603;56;1132289;-76
2021/03/14 05:49:29;;;;;;;6.33;1.40;;;;;;;4.54;72.97;98625.41;5162647;56;1132211;-78
2021/03/14 05:54:37;;;;;;;8.37;5.37;;;;;;;4.52;73.31;98621.25;5166846;56;1132102;-78
2021/03/14 05:59:43;;;;;;;5.23;2.47;;;;;;;4.52;73.26;98629.11;5166871;56;1132124;-79
2021/03/14 06:04:50;;;;;;;9.80;6.10;;;;;;;4.56;73.17;98629.21;5166901;56;1132362;-78
2021/03/14 06:09:56;;;;;;;2.43;1.23;;;;;;;4.59;72.91;98632.86;5170289;56;1132279;-75
2021/03/14 06:15:02;;;;;;;4.53;1.02;;;;;;;4.63;72.32;98638.20;5166121;56;1132667;-74
2021/03/14 06:20:10;;;;;;;5.62;1.67;;;;;;;4.69;71.99;98639.01;5165720;56;1133022;-77
2021/03/14 06:25:27;;;;;;;1.70;0.80;;;;;;;4.72;71.81;98633.52;5164993;56;1133254;-77
2021/03/14 06:30:34;;;;;;;3.47;1.13;;;;;;;4.78;71.93;98650.02;5160125;56;1132826;-75
2021/03/14 06:35:47;;;;;;;4.53;1.20;;;;;;;4.79;71.94;98638.58;5166156;56;1132663;-75
2021/03/14 06:41:09;;;;;;;1.40;1.23;;;;;;;4.87;71.91;98651.05;5157393;56;1132664;-77
2021/03/14 06:46:27;;;;;;;1.15;1.02;;;;;;;4.90;71.75;98659.94;5156401;56;1133087;-76
2021/03/14 06:51:48;;;;;;;1.97;1.00;;;;;;;4.95;71.58;98681.34;5156625;56;1132362;-75
2021/03/14 06:57:20;;;;;;;9.43;5.23;;;;;;;4.98;71.66;98694.67;5153229;56;1132518;-76
2021/03/14 07:02:32;;;;;;;2.20;2.00;;;;;;;5.01;71.89;98691.80;5155543;56;1132317;-74
2021/03/14 07:07:42;;;;;;;10.63;6.47;;;;;;;4.98;72.40;98718.25;5083725;56;1132407;-73
2021/03/14 07:12:50;;;;;;;8.67;6.27;;;;;;;4.92;73.85;98723.03;5070193;57;1134767;-74
2021/03/14 07:31:43;;;;;;;16.50;12.03;;;;;;;4.85;75.65;98742.02;5292044;55;21144;-71
2021/03/14 07:36:50;;;;;;;4.97;4.13;;;;;;;4.54;79.45;98796.87;5164229;57;21175;-74
2021/03/14 07:41:56;;;;;;;5.30;3.03;;;;;;;4.52;79.41;98811.04;5132606;56;21158;-74
2021/03/14 07:47:03;;;;;;;33.23;10.10;;;;;;;4.49;80.36;98830.44;5216292;56;21176;-77
2021/03/14 07:52:12;;;;;;;20.73;5.00;;;;;;;4.45;80.86;98828.17;5219793;56;21096;-76
2021/03/14 07:57:22;;;;;;;66.30;11.67;;;;;;;4.41;81.47;98851.64;5194935;56;21204;-76
2021/03/14 08:02:29;;;;;;;31.90;7.00;;;;;;;4.40;81.83;98856.52;5221317;56;21490;-77
2021/03/14 08:07:39;;;;;;;7.93;4.57;;;;;;;4.41;81.87;98852.95;5258094;56;21157;-76
2021/03/14 08:12:45;;;;;;;18.70;5.83;;;;;;;4.48;82.86;98871.13;5258384;56;21100;-74
2021/03/14 08:17:53;;;;;;;44.03;11.57;;;;;;;4.48;82.12;98890.28;5263435;56;21197;-74
2021/03/14 08:23:01;;;;;;;34.90;8.83;;;;;;;4.51;82.25;98897.91;5260999;56;21488;-76
2021/03/14 08:28:33;;;;;;;14.20;4.77;;;;;;;4.53;82.13;98911.71;5256403;56;21217;-78
2021/03/14 08:33:46;;;;;;;7.83;3.23;;;;;;;4.55;81.71;98920.28;5255506;56;21081;-78
2021/03/14 08:38:55;;;;;;;1.37;1.27;;;;;;;4.61;81.70;98926.80;5213484;56;21166;-77
2021/03/14 08:44:07;;;;;;;3.70;1.80;;;;;;;4.64;81.29;98945.38;5202557;56;21153;-76
2021/03/14 08:49:16;;;;;;;2.53;1.50;;;;;;;4.69;81.01;98943.23;5172274;56;21528;-75
2021/03/14 08:54:29;;;;;;;1.93;1.50;;;;;;;4.72;80.41;98961.33;5174392;56;21155;-75
2021/03/14 08:59:35;;;;;;;2.17;1.42;;;;;;;4.74;80.34;98969.41;5237783;56;21157;-75
2021/03/14 09:04:40;;;;;;;2.63;1.53;;;;;;;4.78;79.98;98986.55;5256379;56;21179;-74
2021/03/14 09:09:48;;;;;;;7.63;2.73;;;;;;;4.81;80.11;99002.50;5247906;56;22067;-76
2021/03/14 09:14:55;;;;;;;0.87;0.80;;;;;;;4.78;79.15;99010.13;5179330;56;21089;-77
2021/03/14 09:20:03;;;;;;;4.53;2.23;;;;;;;4.77;79.49;99006.31;5174155;56;21519;-76
2021/03/14 09:25:14;;;;;;;1.73;0.90;;;;;;;4.76;79.28;99017.27;5171550;56;21190;-78
2021/03/14 09:30:22;;;;;;;0.90;0.90;;;;;;;4.77;79.15;99031.19;5175287;56;21117;-75
2021/03/14 09:35:39;;;;;;;0.80;0.80;;;;;;;4.86;79.88;99031.80;5178676;56;21176;-74
2021/03/14 09:40:53;;;;;;;1.50;1.40;;;;;;;4.94;79.58;99028.93;5181704;56;21158;-76
2021/03/14 09:46:03;;;;;;;1.90;1.00;;;;;;;5.09;79.46;99040.47;5194832;56;21490;-76
2021/03/14 09:51:11;;;;;;;1.80;0.87;;;;;;;5.22;78.98;99051.65;5218388;56;21556;-76
2021/03/14 09:56:19;;;;;;;1.20;1.10;;;;;;;5.27;78.35;99057.38;5179232;56;21171;-76
2021/03/14 10:01:50;;;;;;;3.70;1.47;;;;;;;5.35;78.60;99064.64;5170627;57;21154;-74
2021/03/14 10:06:56;;;;;;;292.47;159.37;;;;;;;5.36;77.35;99082.84;5171650;57;21448;-73
2021/03/14 10:12:02;;;;;;;232.13;78.67;;;;;;;5.32;77.32;99085.85;5141896;56;21125;-73
2021/03/14 10:17:12;;;;;;;120.77;31.83;;;;;;;5.32;77.59;99093.23;5122356;57;21159;-76
2021/03/14 10:22:35;;;;;;;75.30;19.47;;;;;;;5.36;77.81;99101.20;5133641;57;21186;-74
2021/03/14 10:28:19;;;;;;;58.50;16.60;;;;;;;5.49;77.57;99096.68;5129081;57;21188;-73
2021/03/14 10:33:36;;;;;;;62.40;18.30;;;;;;;5.52;76.41;99113.93;5132010;57;21175;-73
2021/03/14 10:38:53;;;;;;;33.80;9.70;;;;;;;5.52;77.12;99127.05;5134324;57;21171;-73
2021/03/14 10:44:03;;;;;;;27.90;9.17;;;;;;;5.49;76.63;99132.55;5132178;57;21174;-72
2021/03/14 10:49:18;;;;;;;30.60;11.10;;;;;;;5.48;76.78;99136.12;5130785;57;21206;-73
2021/03/14 10:54:35;;;;;;;8.40;2.07;;;;;;;5.46;77.27;99149.36;5132203;57;21159;-73
2021/03/14 10:59:42;;;;;;;21.80;8.40;;;;;;;5.49;77.00;99164.86;5127107;57;21168;-74
2021/03/14 11:05:01;;;;;;;19.77;12.70;;;;;;;5.48;77.46;99169.73;5154600;56;21131;-74
2021/03/14 11:10:17;;;;;;;133.87;37.43;;;;;;;5.52;78.13;99181.64;5154424;56;21256;-76
2021/03/14 11:15:31;;;;;;;207.70;70.77;;;;;;;5.52;77.50;99189.50;5161473;56;21489;-75
2021/03/14 11:20:50;;;;;;;56.30;16.77;;;;;;;5.52;77.88;99196.05;5159696;57;21258;-78
2021/03/14 11:25:58;;;;;;;69.47;18.60;;;;;;;5.53;78.45;99192.48;5151574;56;21410;-77
2021/03/14 11:31:04;;;;;;;44.03;12.30;;;;;;;5.59;79.00;99208.23;5158666;56;21178;-76
2021/03/14 11:36:10;;;;;;;30.80;9.50;;;;;;;5.51;79.15;99204.88;5183622;56;21245;-76
2021/03/14 11:41:17;;;;;;;12.60;5.77;;;;;;;5.52;79.88;99223.59;5122421;56;21158;-76
2021/03/14 11:46:41;;;;;;;6.40;3.05;;;;;;;5.62;80.05;99217.17;5154448;56;21172;-76
2021/03/14 11:51:54;;;;;;;47.78;27.87;;;;;;;5.66;79.79;99223.83;5184457;56;21228;-77
2021/03/14 11:57:01;;;;;;;65.57;18.37;;;;;;;5.68;79.87;99230.27;5208904;56;21237;-77
2021/03/14 12:02:09;;;;;;;16.03;6.17;;;;;;;5.59;80.94;99226.11;5211123;56;21172;-75
2021/03/14 12:07:19;;;;;;;9.40;3.80;;;;;;;5.43;81.66;99238.73;5196977;56;21134;-76
2021/03/14 12:12:25;;;;;;;41.73;11.30;;;;;;;5.36;82.81;99255.04;5215786;56;21194;-76
2021/03/14 12:17:32;;;;;;;20.17;5.77;;;;;;;5.33;82.84;99253.98;5257259;56;21147;-78
2021/03/14 12:22:56;;;;;;;21.57;6.53;;;;;;;5.28;83.60;99268.27;5255154;56;21147;-76
2021/03/14 12:28:02;;;;;;;22.90;7.43;;;;;;;5.24;84.03;99272.06;5223088;56;21169;-79
2021/03/14 12:33:08;;;;;;;191.53;46.00;;;;;;;5.22;83.71;99263.95;5188094;56;21104;-79
2021/03/14 12:38:14;;;;;;;279.73;55.93;;;;;;;5.20;82.96;99268.47;5171425;57;21112;-79
2021/03/14 12:43:22;;;;;;;151.07;34.30;;;;;;;5.24;82.84;99263.36;5169966;57;21241;-78
2021/03/14 12:48:29;;;;;;;151.43;31.80;;;;;;;5.32;82.50;99258.87;5169256;57;21308;-78
2021/03/14 12:53:36;;;;;;;46.20;10.63;;;;;;;5.43;81.47;99264.12;5087108;57;21154;-78
2021/03/14 12:58:43;;;;;;;49.43;15.17;;;;;;;5.58;80.73;99267.72;5180129;56;21140;-78
2021/03/14 13:03:51;;;;;;;74.30;19.30;;;;;;;5.82;80.19;99264.13;5259646;55;21549;-78
2021/03/14 13:08:57;;;;;;;53.20;13.27;;;;;;;6.21;80.13;99279.89;5258122;55;21194;-78
2021/03/14 13:14:04;;;;;;;23.03;8.90;;;;;;;6.34;77.05;99270.91;5257961;55;21124;-77
2021/03/14 13:19:09;;;;;;;102.60;33.30;;;;;;;6.33;75.64;99295.50;5255830;56;21132;-77
2021/03/14 13:24:16;;;;;;;28.63;10.70;;;;;;;6.31;77.04;99296.09;5251769;55;21132;-78
2021/03/14 13:29:21;;;;;;;9.83;5.10;;;;;;;6.20;75.72;99300.06;5263329;55;21126;-77
2021/03/14 13:34:27;;;;;;;1.53;1.40;;;;;;;6.09;76.89;99305.80;5258081;55;21171;-78
2021/03/14 13:39:33;;;;;;;1.73;1.63;;;;;;;5.96;78.28;99353.97;5260628;55;21436;-76
2021/03/14 13:44:38;;;;;;;11.03;3.60;;;;;;;5.57;79.30;99387.16;5260314;55;21183;-79
2021/03/14 13:49:45;;;;;;;12.00;5.27;;;;;;;4.81;80.20;99379.22;5260963;55;21175;-76
2021/03/14 13:54:51;;;;;;;5.50;2.87;;;;;;;4.40;80.90;99381.33;5260726;55;21187;-79
2021/03/14 13:59:56;;;;;;;67.70;17.20;;;;;;;4.36;81.79;99371.55;5259343;55;21167;-77
2021/03/14 14:05:02;;;;;;;72.80;17.17;;;;;;;4.46;82.79;99382.19;5263170;55;21236;-75
2021/03/14 14:10:13;;;;;;;165.83;38.73;;;;;;;4.57;83.44;99399.31;5266518;55;21152;-75
2021/03/14 14:15:19;;;;;;;42.27;10.27;;;;;;;4.68;83.59;99402.47;5261285;56;21204;-79
2021/03/14 14:20:25;;;;;;;69.47;18.87;;;;;;;4.81;85.13;99405.41;5262925;55;21140;-75
2021/03/14 14:25:30;;;;;;;116.87;29.23;;;;;;;4.94;84.31;99400.12;5258171;55;21198;-77
2021/03/14 14:30:45;;;;;;;74.80;18.53;;;;;;;5.17;85.29;99405.85;5220789;55;21272;-88
2021/03/14 14:35:51;;;;;;;91.23;29.93;;;;;;;5.43;85.00;99417.51;4966042;56;1134601;-76
2021/03/14 14:40:57;;;;;;;64.27;19.30;;;;;;;5.69;85.31;99424.73;4980067;57;1138652;-76
2021/03/14 14:46:02;;;;;;;6.37;2.93;;;;;;;5.85;83.62;99431.82;4978443;58;1137979;-77
2021/03/14 14:51:08;;;;;;;47.90;14.90;;;;;;;5.87;83.05;99434.70;4861063;59;1132397;-76
2021/03/14 14:56:14;;;;;;;13.17;5.27;;;;;;;5.80;83.08;99441.38;5013952;57;1138791;-78
2021/03/14 15:01:19;;;;;;;3.00;2.13;;;;;;;5.69;82.80;99445.25;4997494;57;1136876;-78
2021/03/14 15:06:25;;;;;;;8.90;4.50;;;;;;;5.55;83.44;99453.31;5054880;56;1132607;-77
2021/03/14 15:11:31;;;;;;;4.40;3.20;;;;;;;5.48;83.80;99469.98;5074605;56;1134357;-77
2021/03/14 15:16:37;;;;;;;6.33;3.23;;;;;;;5.28;82.50;99466.66;5075323;56;1132177;-78
2021/03/14 15:21:43;;;;;;;6.23;3.73;;;;;;;5.10;83.25;99472.75;5070249;56;1132620;-78
2021/03/14 15:26:49;;;;;;;8.40;3.63;;;;;;;4.97;83.13;99492.92;5006663;56;1132216;-76
2021/03/14 15:31:55;;;;;;;10.63;3.90;;;;;;;4.83;83.47;99495.67;4968004;57;1132766;-76
2021/03/14 15:37:00;;;;;;;9.48;3.55;;;;;;;4.83;83.76;99500.45;5000989;56;1134553;-77
2021/03/14 15:42:06;;;;;;;5.57;3.80;;;;;;;4.89;83.35;99499.99;5023098;56;1132895;-76
2021/03/14 15:47:13;;;;;;;9.63;4.83;;;;;;;4.91;82.62;99507.28;5011557;56;1132789;-77
2021/03/14 15:52:19;;;;;;;17.47;7.47;;;;;;;4.89;82.39;99509.16;5008162;57;1132735;-78
2021/03/14 15:57:24;;;;;;;13.13;6.30;;;;;;;4.85;82.32;99513.44;5028572;57;1134786;-75
2021/03/14 16:02:30;;;;;;;24.87;7.80;;;;;;;4.82;82.37;99517.58;4930017;58;1134861;-78
2021/03/14 16:07:35;;;;;;;8.90;4.05;;;;;;;4.77;82.09;99533.61;4984731;58;1135021;-80
2021/03/14 16:12:41;;;;;;;15.77;6.00;;;;;;;4.75;81.61;99549.89;4991524;58;1132827;-79
2021/03/14 16:17:47;;;;;;;6.87;3.53;;;;;;;5.21;80.53;99545.36;4955611;58;1134174;-81
2021/03/14 16:22:52;;;;;;;17.57;8.67;;;;;;;4.97;80.41;99560.20;4914154;58;1134432;-74
2021/03/14 16:27:57;;;;;;;12.53;5.20;;;;;;;4.76;80.53;99578.23;4933960;58;1134629;-75
2021/03/14 16:33:04;;;;;;;4.73;3.00;;;;;;;4.65;80.67;99586.00;4925746;57;1134656;-74
2021/03/14 16:38:09;;;;;;;42.57;17.27;;;;;;;4.63;79.25;99586.56;4924033;58;1132516;-74
2021/03/14 16:43:15;;;;;;;6.67;3.93;;;;;;;4.63;77.57;99591.33;4913586;58;1136359;-74
2021/03/14 16:48:20;;;;;;;8.43;4.13;;;;;;;4.63;76.83;99617.99;4898322;58;1132711;-73
2021/03/14 16:53:27;;;;;;;5.60;2.50;;;;;;;4.59;77.60;99631.28;4989264;56;1132703;-74
2021/03/14 16:58:32;;;;;;;10.48;4.95;;;;;;;4.57;77.89;99641.52;4986668;57;1132393;-74
2021/03/14 17:03:38;;;;;;;11.00;5.10;;;;;;;4.57;78.14;99654.62;4976348;56;1134716;-76
2021/03/14 17:08:43;;;;;;;17.45;8.15;;;;;;;4.55;78.32;99662.57;4967862;56;1134802;-79
2021/03/14 17:13:49;;;;;;;15.40;8.03;;;;;;;4.54;78.62;99676.60;4955934;56;1134498;-75
2021/03/14 17:18:55;;;;;;;16.77;7.90;;;;;;;4.54;78.88;99680.53;4985000;56;1134549;-75
2021/03/14 17:24:01;;;;;;;7.25;4.62;;;;;;;4.58;78.94;99691.14;4984597;57;1134687;-74
2021/03/14 17:29:07;;;;;;;13.65;5.80;;;;;;;4.56;79.11;99689.13;4997562;56;1132393;-75
2021/03/14 17:34:13;;;;;;;10.05;5.65;;;;;;;4.58;79.18;99692.95;4997624;56;1134279;-74
2021/03/14 17:39:19;;;;;;;6.00;4.23;;;;;;;4.63;79.22;99693.47;4945014;57;1136432;-74
2021/03/14 17:44:25;;;;;;;9.87;6.70;;;;;;;4.68;79.24;99702.34;4980431;57;1132858;-75
2021/03/14 17:49:31;;;;;;;25.60;8.33;;;;;;;4.67;79.28;99709.36;4959866;56;1132390;-75
2021/03/14 17:54:37;;;;;;;22.33;10.30;;;;;;;4.66;79.30;99711.61;4951531;56;1135149;-75
2021/03/14 17:59:42;;;;;;;10.50;5.60;;;;;;;4.66;79.20;99714.22;4963752;57;1139058;-75
2021/03/14 18:04:49;;;;;;;9.57;5.90;;;;;;;4.63;79.25;99720.13;4978663;56;1134944;-74
2021/03/14 18:09:55;;;;;;;7.33;5.10;;;;;;;4.56;79.17;99725.78;4983724;56;1142230;-74
2021/03/14 18:15:01;;;;;;;11.63;5.62;;;;;;;4.49;78.98;99730.20;4982824;56;1132787;-75
2021/03/14 18:20:09;;;;;;;7.87;4.05;;;;;;;4.40;78.94;99732.12;4996923;57;1134900;-74
2021/03/14 18:25:15;;;;;;;8.43;3.37;;;;;;;4.35;78.05;99736.80;4919264;56;1132189;-74
2021/03/14 18:30:25;;;;;;;10.70;4.60;;;;;;;4.26;78.12;99751.33;4979378;56;1132293;-74
2021/03/14 18:35:31;;;;;;;16.13;7.37;;;;;;;4.26;77.97;99759.19;4953621;57;1134666;-74
2021/03/14 18:40:37;;;;;;;12.87;5.47;;;;;;;4.22;77.62;99771.62;4937966;57;1134562;-72
2021/03/14 18:45:42;;;;;;;9.23;4.10;;;;;;;4.20;77.05;99774.80;4943456;56;1134556;-73
2021/03/14 18:50:49;;;;;;;5.50;3.30;;;;;;;4.13;77.10;99778.72;4936369;56;1132491;-80
2021/03/14 18:55:54;;;;;;;7.33;3.60;;;;;;;4.09;76.55;99773.80;4965991;56;1136494;-77
2021/03/14 19:01:00;;;;;;;10.10;4.15;;;;;;;4.04;76.05;99778.47;4961296;57;1132293;-76
2021/03/14 19:06:06;;;;;;;10.05;4.85;;;;;;;4.00;76.32;99784.35;4975487;58;1134602;-77
2021/03/14 19:11:12;;;;;;;22.77;7.83;;;;;;;3.96;76.13;99789.89;4991070;57;1134632;-75
2021/03/14 19:16:17;;;;;;;58.40;15.77;;;;;;;3.90;76.25;99800.25;4926638;56;1134542;-75
2021/03/14 19:21:23;;;;;;;96.90;21.70;;;;;;;3.87;75.94;99806.52;4852565;57;1136558;-75
2021/03/14 19:26:29;;;;;;;97.83;20.43;;;;;;;3.82;76.22;99811.64;4889206;59;1136753;-74
2021/03/14 19:31:34;;;;;;;39.07;11.20;;;;;;;3.78;76.17;99812.78;4947809;57;1136638;-74
2021/03/14 19:36:40;;;;;;;37.87;19.27;;;;;;;3.71;75.79;99812.30;5024629;57;1136489;-75
2021/03/14 19:41:46;;;;;;;48.08;26.73;;;;;;;3.59;75.92;99819.59;4851699;59;1136404;-75
2021/03/14 19:46:51;;;;;;;97.87;39.73;;;;;;;3.54;75.99;99822.93;4936718;58;1136707;-75
2021/03/14 19:51:57;;;;;;;313.40;107.07;;;;;;;3.47;76.11;99826.86;4965352;58;1136603;-75
2021/03/14 19:57:03;;;;;;;229.33;91.87;;;;;;;3.45;76.14;99828.72;4971919;58;1141062;-76
2021/03/14 20:02:09;;;;;;;154.80;67.63;;;;;;;3.42;76.30;99829.73;4962964;58;1138447;-78
2021/03/14 20:07:15;;;;;;;87.13;39.50;;;;;;;3.41;76.34;99828.52;4999281;58;1138650;-75
2021/03/14 20:12:20;;;;;;;50.70;26.00;;;;;;;3.42;76.36;99831.51;4987785;58;1136364;-75
2021/03/14 20:17:26;;;;;;;74.80;28.35;;;;;;;3.40;76.45;99826.83;4938984;57;1136432;-76
2021/03/14 20:22:31;;;;;;;49.07;25.23;;;;;;;3.43;76.43;99824.88;4951556;57;1137113;-76
2021/03/14 20:27:39;;;;;;;24.53;12.20;;;;;;;3.46;76.45;99823.41;4957069;58;1137183;-75
2021/03/14 20:32:45;;;;;;;27.32;11.03;;;;;;;3.47;76.48;99817.71;4941002;58;1136884;-76
2021/03/14 20:37:51;;;;;;;36.87;15.93;;;;;;;3.51;76.34;99821.83;4922917;59;1136609;-75
2021/03/14 20:42:57;;;;;;;68.13;24.10;;;;;;;3.50;76.50;99830.61;4965630;58;1136646;-78
2021/03/14 20:48:03;;;;;;;28.10;13.08;;;;;;;3.55;76.37;99836.38;4988637;58;1136970;-76
2021/03/14 20:53:08;;;;;;;20.60;9.93;;;;;;;3.57;76.30;99843.67;4981357;58;1136608;-76
2021/03/14 20:58:14;;;;;;;22.70;9.23;;;;;;;3.53;76.32;99843.47;4990811;58;1134448;-77
2021/03/14 21:03:20;;;;;;;20.53;8.10;;;;;;;3.54;76.24;99842.08;4990783;58;1134557;-77
2021/03/14 21:08:25;;;;;;;20.37;7.20;;;;;;;3.48;76.24;99835.92;5003404;58;1134454;-77
2021/03/14 21:13:31;;;;;;;32.70;10.67;;;;;;;3.47;76.29;99837.31;4953397;58;1134465;-79
2021/03/14 21:18:36;;;;;;;21.97;8.13;;;;;;;3.44;76.53;99837.49;4901931;58;1136463;-76
2021/03/14 21:23:42;;;;;;;19.57;6.73;;;;;;;3.44;76.76;99840.95;4903768;58;1134800;-76
2021/03/14 21:28:47;;;;;;;28.53;9.43;;;;;;;3.45;77.16;99835.25;4919609;58;1134965;-77
2021/03/14 21:33:54;;;;;;;20.27;7.67;;;;;;;3.46;77.50;99840.39;4906673;58;1135000;-79
2021/03/14 21:38:59;;;;;;;32.20;10.73;;;;;;;3.53;78.00;99848.23;4923913;58;1144187;-77
2021/03/14 21:44:05;;;;;;;60.88;17.87;;;;;;;3.55;78.02;99853.38;4914253;58;1136907;-76
2021/03/14 21:49:11;;;;;;;17.20;6.35;;;;;;;3.57;78.21;99848.90;4913509;58;1136685;-78
2021/03/14 21:54:17;;;;;;;32.40;8.40;;;;;;;3.58;78.92;99841.44;4918290;58;1134327;-77
2021/03/14 21:59:22;;;;;;;53.53;14.03;;;;;;;3.61;79.04;99837.33;4920390;58;1134454;-78
2021/03/14 22:04:28;;;;;;;21.23;7.67;;;;;;;3.65;79.23;99835.38;4924090;58;1136367;-76
2021/03/14 22:09:33;;;;;;;20.37;6.17;;;;;;;3.65;79.51;99836.69;4911994;58;1135088;-76
2021/03/14 22:14:40;;;;;;;41.77;15.20;;;;;;;3.68;79.58;99829.95;4954522;58;1134936;-76
2021/03/14 22:19:45;;;;;;;24.83;7.60;;;;;;;3.68;79.87;99827.33;4928513;57;1136849;-76
2021/03/14 22:24:51;;;;;;;22.63;6.60;;;;;;;3.67;80.07;99834.33;4939185;58;1135334;-78
2021/03/14 22:29:57;;;;;;;28.15;8.45;;;;;;;3.67;80.43;99839.56;4929252;58;1134758;-78
2021/03/14 22:35:08;;;;;;;17.30;6.67;;;;;;;3.67;80.15;99842.17;4918841;58;1134860;-76
2021/03/14 22:40:15;;;;;;;12.30;5.22;;;;;;;3.68;80.23;99833.87;4973058;58;1134896;-75
2021/03/14 22:45:25;;;;;;;13.53;4.23;;;;;;;3.66;80.21;99824.84;4994033;58;1134494;-77
2021/03/14 22:50:40;;;;;;;20.80;5.93;;;;;;;3.62;81.02;99821.18;4958756;58;1134779;-76
2021/03/14 22:55:46;;;;;;;18.53;5.27;;;;;;;3.56;81.08;99818.45;4946532;57;1134814;-76
2021/03/14 23:00:53;;;;;;;8.87;4.00;;;;;;;3.54;81.22;99817.70;4939201;58;1134982;-77
2021/03/14 23:05:58;;;;;;;22.13;7.10;;;;;;;3.49;80.99;99813.23;4936869;58;1132385;-77
2021/03/14 23:11:12;;;;;;;23.85;8.38;;;;;;;3.45;81.33;99811.27;4913536;58;1134374;-75
2021/03/14 23:16:18;;;;;;;32.98;12.33;;;;;;;3.43;81.50;99813.13;4908749;58;1134276;-77
2021/03/14 23:21:24;;;;;;;17.53;7.23;;;;;;;3.43;81.07;99812.28;4913866;58;1136640;-74
2021/03/14 23:26:32;;;;;;;15.73;6.93;;;;;;;3.40;80.77;99806.77;4911888;58;1134413;-77
2021/03/14 23:31:41;;;;;;;14.43;5.40;;;;;;;3.37;80.66;99810.02;4918231;58;1134458;-77
2021/03/14 23:36:47;;;;;;;18.48;6.83;;;;;;;3.25;81.70;99815.98;4902770;58;1134708;-76
2021/03/14 23:41:53;;;;;;;18.03;7.03;;;;;;;3.15;81.53;99808.69;4901769;58;1134521;-75
2021/03/14 23:46:59;;;;;;;17.50;6.28;;;;;;;3.07;81.62;99803.52;4922471;58;1144373;-76
2021/03/14 23:52:04;;;;;;;16.20;6.50;;;;;;;2.99;82.03;99813.12;4898526;58;1134589;-76
2021/03/14 23:57:10;;;;;;;15.32;6.00;;;;;;;2.96;81.89;99811.14;4897747;58;1134460;-77
